Stanville, KY (41659)

6:01 PM EDT on July 24, 2016 (GMT -0400)
Ratliff Creek | | Change Station

Elev 699 ft 37.50 °N, 82.53 °W | Updated 1 minute ago

Clear
Clear
84.9 °F
Feels Like 95 °F
N
3.1
Wind Variable Wind from SSW
Gusts 7.6 mph

Today
High -- | Low -- °F
--% Chance of Precip.
Yesterday
High -- | Low -- °F
Precip. -- in
Pressure 30.03 in
Visibility 10.0 miles
Clouds Clear
Heat Index 95 °F
Dew Point 77 °F
Humidity 76%
Rainfall 0.00 in
Snow Depth Not available.
6:28 AM 8:45 PM
Waning Gibbous, 72% visible
METAR KSJS 241955Z AUTO 26003KT 10SM CLR 34/23 A3003 RMK AO2 T03350225
Pressure 30.03 in
Visibility 10.0 miles
Clouds Clear
Heat Index 95 °F
Dew Point 77 °F
Humidity 76%
Rainfall 0.00 in
Snow Depth Not available.
6:28 AM 8:45 PM
Waning Gibbous, 72% visible
METAR KSJS 241955Z AUTO 26003KT 10SM CLR 34/23 A3003 RMK AO2 T03350225

10-Day Weather Forecast

Almanac

Astronomy

Jul. 24, 2016 Rise Set
Actual Time
Civil Twilight
Nautical Twilight
Astronomical Twilight
Moon
Length of Visible Light
Length of Day
Tomorrow will be .
, % of the Moon is Illuminated

Today's Extremes

State Highs State Lows

Community

WunderPhotos

Upload Photos

1,927,195 photos uploaded!

WunderBlog® & News

Nearby

Air Quality

  Air Quality AQ Index Pollutant
Not available.

Snow Depth

Station Depth Elevation

Earthquake Activity

City Distance Mag. Time & Date
Minimum magnitude displayed is 2.5.

Coastal Water Temperatures

Place Temperature

Stations

Nearby Weather Stations

Station Location Temp. Windchill Dew Point Humidity Wind Precip. Elev Updated Type
                   

Watches & Warnings

There are currently no watches in effect.